sensor_id;sensor_type;location;lat;lon;timestamp;pressure;altitude;pressure_sealevel;temperature;humidity
15817;BME280;8009;50.070;8.232;2023-03-23T00:01:48;99165.59;;;12.41;62.67
15817;BME280;8009;50.070;8.232;2023-03-23T00:04:20;99162.03;;;12.41;63.25
15817;BME280;8009;50.070;8.232;2023-03-23T00:06:51;99151.19;;;12.41;63.55
15817;BME280;8009;50.070;8.232;2023-03-23T00:09:19;99155.19;;;12.37;63.61
15817;BME280;8009;50.070;8.232;2023-03-23T00:11:50;99151.22;;;12.31;64.17
15817;BME280;8009;50.070;8.232;2023-03-23T00:14:22;99162.22;;;12.30;64.90
15817;BME280;8009;50.070;8.232;2023-03-23T00:16:51;99160.16;;;12.41;64.81
15817;BME280;8009;50.070;8.232;2023-03-23T00:19:22;99151.66;;;12.36;64.83
15817;BME280;8009;50.070;8.232;2023-03-23T00:21:51;99149.47;;;12.40;62.91
15817;BME280;8009;50.070;8.232;2023-03-23T00:24:19;99158.88;;;12.46;61.91
15817;BME280;8009;50.070;8.232;2023-03-23T00:26:50;99154.22;;;12.28;62.13
15817;BME280;8009;50.070;8.232;2023-03-23T00:29:24;99159.50;;;12.30;64.04
15817;BME280;8009;50.070;8.232;2023-03-23T00:31:52;99149.22;;;12.33;66.14
15817;BME280;8009;50.070;8.232;2023-03-23T00:34:27;99150.09;;;12.34;64.70
15817;BME280;8009;50.070;8.232;2023-03-23T00:36:58;99139.53;;;12.31;63.15
15817;BME280;8009;50.070;8.232;2023-03-23T00:39:27;99137.22;;;12.36;64.14
15817;BME280;8009;50.070;8.232;2023-03-23T00:41:56;99124.03;;;12.33;63.64
15817;BME280;8009;50.070;8.232;2023-03-23T00:44:26;99119.16;;;12.36;63.77
15817;BME280;8009;50.070;8.232;2023-03-23T00:46:56;99118.28;;;12.36;65.47
15817;BME280;8009;50.070;8.232;2023-03-23T00:49:27;99130.13;;;12.35;65.49
15817;BME280;8009;50.070;8.232;2023-03-23T00:51:57;99129.72;;;12.30;66.46
15817;BME280;8009;50.070;8.232;2023-03-23T00:54:26;99127.75;;;12.22;65.82
15817;BME280;8009;50.070;8.232;2023-03-23T00:56:55;99128.31;;;12.26;67.63
15817;BME280;8009;50.070;8.232;2023-03-23T00:59:23;99132.44;;;12.20;66.51
15817;BME280;8009;50.070;8.232;2023-03-23T01:01:52;99132.22;;;12.04;66.60
15817;BME280;8009;50.070;8.232;2023-03-23T01:04:20;99118.41;;;12.07;66.79
15817;BME280;8009;50.070;8.232;2023-03-23T01:06:51;99136.06;;;12.01;67.99
15817;BME280;8009;50.070;8.232;2023-03-23T01:09:20;99128.69;;;11.93;68.32
15817;BME280;8009;50.070;8.232;2023-03-23T01:11:50;99139.22;;;12.06;66.17
15817;BME280;8009;50.070;8.232;2023-03-23T01:14:21;99139.38;;;11.85;66.25
15817;BME280;8009;50.070;8.232;2023-03-23T01:16:52;99136.19;;;12.09;65.45
15817;BME280;8009;50.070;8.232;2023-03-23T01:19:20;99140.13;;;12.25;66.91
15817;BME280;8009;50.070;8.232;2023-03-23T01:21:51;99143.25;;;12.30;67.26
15817;BME280;8009;50.070;8.232;2023-03-23T01:24:19;99139.09;;;12.35;65.90
15817;BME280;8009;50.070;8.232;2023-03-23T01:26:48;99132.16;;;12.33;65.83
15817;BME280;8009;50.070;8.232;2023-03-23T01:29:16;99124.31;;;12.30;64.93
15817;BME280;8009;50.070;8.232;2023-03-23T01:31:44;99122.00;;;12.35;63.33
15817;BME280;8009;50.070;8.232;2023-03-23T01:34:14;99113.84;;;12.44;63.75
15817;BME280;8009;50.070;8.232;2023-03-23T01:36:45;99116.59;;;12.35;64.04
15817;BME280;8009;50.070;8.232;2023-03-23T01:39:16;99105.31;;;12.39;64.61
15817;BME280;8009;50.070;8.232;2023-03-23T01:41:44;99104.34;;;12.31;65.40
15817;BME280;8009;50.070;8.232;2023-03-23T01:47:17;99091.16;;;12.18;65.55
15817;BME280;8009;50.070;8.232;2023-03-23T01:49:49;99102.00;;;12.18;66.47
15817;BME280;8009;50.070;8.232;2023-03-23T01:52:19;99110.16;;;12.36;65.50
15817;BME280;8009;50.070;8.232;2023-03-23T01:54:54;99106.31;;;12.38;65.10
15817;BME280;8009;50.070;8.232;2023-03-23T01:57:25;99112.66;;;12.19;66.20
15817;BME280;8009;50.070;8.232;2023-03-23T01:59:56;99103.69;;;12.19;65.89
15817;BME280;8009;50.070;8.232;2023-03-23T02:02:27;99106.38;;;12.29;65.36
15817;BME280;8009;50.070;8.232;2023-03-23T02:04:59;99104.75;;;12.36;66.47
15817;BME280;8009;50.070;8.232;2023-03-23T02:07:31;99095.69;;;12.27;66.52
15817;BME280;8009;50.070;8.232;2023-03-23T02:10:03;99093.81;;;12.28;66.10
15817;BME280;8009;50.070;8.232;2023-03-23T02:12:32;99089.69;;;12.33;65.91
15817;BME280;8009;50.070;8.232;2023-03-23T02:15:01;99088.50;;;12.36;67.43
15817;BME280;8009;50.070;8.232;2023-03-23T02:17:35;99080.56;;;12.25;66.38
15817;BME280;8009;50.070;8.232;2023-03-23T02:20:17;99077.94;;;12.15;66.66
15817;BME280;8009;50.070;8.232;2023-03-23T02:22:56;99072.03;;;12.29;67.21
15817;BME280;8009;50.070;8.232;2023-03-23T02:25:52;99081.38;;;12.07;67.29
15817;BME280;8009;50.070;8.232;2023-03-23T02:28:49;99088.41;;;12.28;66.11
15817;BME280;8009;50.070;8.232;2023-03-23T02:31:34;99084.38;;;12.41;65.27
15817;BME280;8009;50.070;8.232;2023-03-23T02:34:14;99078.56;;;12.36;65.46
15817;BME280;8009;50.070;8.232;2023-03-23T02:36:47;99069.44;;;12.37;65.76
15817;BME280;8009;50.070;8.232;2023-03-23T02:39:20;99064.41;;;12.42;66.41
15817;BME280;8009;50.070;8.232;2023-03-23T02:41:52;99067.97;;;12.43;65.08
15817;BME280;8009;50.070;8.232;2023-03-23T02:44:23;99068.88;;;12.34;66.49
15817;BME280;8009;50.070;8.232;2023-03-23T02:46:56;99059.81;;;12.25;67.43
15817;BME280;8009;50.070;8.232;2023-03-23T02:49:29;99067.28;;;12.41;69.00
15817;BME280;8009;50.070;8.232;2023-03-23T02:52:02;99061.31;;;12.37;68.90
15817;BME280;8009;50.070;8.232;2023-03-23T02:54:33;99062.72;;;12.41;66.80
15817;BME280;8009;50.070;8.232;2023-03-23T02:57:02;99062.81;;;12.22;71.04
15817;BME280;8009;50.070;8.232;2023-03-23T02:59:31;99063.50;;;12.24;70.52
15817;BME280;8009;50.070;8.232;2023-03-23T03:02:05;99059.25;;;12.22;69.27
15817;BME280;8009;50.070;8.232;2023-03-23T03:04:39;99063.81;;;12.21;72.99
15817;BME280;8009;50.070;8.232;2023-03-23T03:07:26;99048.44;;;12.22;71.30
15817;BME280;8009;50.070;8.232;2023-03-23T03:10:02;99054.13;;;12.18;73.20
15817;BME280;8009;50.070;8.232;2023-03-23T03:12:40;99052.63;;;12.06;72.31
15817;BME280;8009;50.070;8.232;2023-03-23T03:15:19;99055.34;;;12.06;74.38
15817;BME280;8009;50.070;8.232;2023-03-23T03:17:54;99053.59;;;12.05;73.47
15817;BME280;8009;50.070;8.232;2023-03-23T03:20:28;99053.53;;;11.87;75.21
15817;BME280;8009;50.070;8.232;2023-03-23T03:22:59;99057.13;;;11.68;75.86
15817;BME280;8009;50.070;8.232;2023-03-23T03:25:29;99050.69;;;11.79;77.35
15817;BME280;8009;50.070;8.232;2023-03-23T03:27:58;99058.25;;;11.66;76.77
15817;BME280;8009;50.070;8.232;2023-03-23T03:30:30;99063.28;;;11.41;79.63
15817;BME280;8009;50.070;8.232;2023-03-23T03:33:01;99053.25;;;11.71;78.41
15817;BME280;8009;50.070;8.232;2023-03-23T03:35:35;99056.41;;;11.66;78.23
15817;BME280;8009;50.070;8.232;2023-03-23T03:38:06;99048.56;;;11.73;78.62
15817;BME280;8009;50.070;8.232;2023-03-23T03:40:35;99039.88;;;11.69;76.50
15817;BME280;8009;50.070;8.232;2023-03-23T03:43:04;99043.72;;;11.77;78.03
15817;BME280;8009;50.070;8.232;2023-03-23T03:45:33;99053.81;;;11.75;77.66
15817;BME280;8009;50.070;8.232;2023-03-23T03:48:01;99052.28;;;11.72;78.51
15817;BME280;8009;50.070;8.232;2023-03-23T03:50:32;99056.69;;;11.63;77.54
15817;BME280;8009;50.070;8.232;2023-03-23T03:53:01;99056.38;;;11.76;77.94
15817;BME280;8009;50.070;8.232;2023-03-23T03:55:29;99052.38;;;11.80;76.54
15817;BME280;8009;50.070;8.232;2023-03-23T03:58:00;99048.44;;;11.84;75.33
15817;BME280;8009;50.070;8.232;2023-03-23T04:00:29;99051.69;;;11.88;76.23
15817;BME280;8009;50.070;8.232;2023-03-23T04:02:58;99052.38;;;11.90;75.49
15817;BME280;8009;50.070;8.232;2023-03-23T04:05:26;99048.72;;;11.62;74.87
15817;BME280;8009;50.070;8.232;2023-03-23T04:07:59;99059.91;;;11.96;73.19
15817;BME280;8009;50.070;8.232;2023-03-23T04:10:29;99066.44;;;12.03;73.21
15817;BME280;8009;50.070;8.232;2023-03-23T04:12:58;99076.59;;;11.91;72.07
15817;BME280;8009;50.070;8.232;2023-03-23T04:15:27;99075.69;;;12.01;71.69
15817;BME280;8009;50.070;8.232;2023-03-23T04:17:55;99070.44;;;11.99;71.74
15817;BME280;8009;50.070;8.232;2023-03-23T04:20:24;99080.81;;;12.04;71.05
15817;BME280;8009;50.070;8.232;2023-03-23T04:22:52;99086.22;;;12.04;69.51
15817;BME280;8009;50.070;8.232;2023-03-23T04:25:23;99085.03;;;12.16;70.25
15817;BME280;8009;50.070;8.232;2023-03-23T04:27:53;99094.28;;;12.23;69.91
15817;BME280;8009;50.070;8.232;2023-03-23T04:30:24;99088.69;;;12.25;69.57
15817;BME280;8009;50.070;8.232;2023-03-23T04:32:52;99097.44;;;12.18;69.98
15817;BME280;8009;50.070;8.232;2023-03-23T04:35:23;99095.78;;;12.35;68.69
15817;BME280;8009;50.070;8.232;2023-03-23T04:37:55;99097.63;;;12.35;68.45
15817;BME280;8009;50.070;8.232;2023-03-23T04:40:26;99089.81;;;12.32;68.69
15817;BME280;8009;50.070;8.232;2023-03-23T04:42:54;99093.69;;;12.29;68.66
15817;BME280;8009;50.070;8.232;2023-03-23T04:45:31;99089.63;;;12.43;67.93
15817;BME280;8009;50.070;8.232;2023-03-23T04:48:00;99091.84;;;12.30;68.75
15817;BME280;8009;50.070;8.232;2023-03-23T04:50:31;99088.47;;;12.18;69.46
15817;BME280;8009;50.070;8.232;2023-03-23T04:53:01;99087.38;;;12.38;68.22
15817;BME280;8009;50.070;8.232;2023-03-23T04:55:34;99087.38;;;12.38;68.61
15817;BME280;8009;50.070;8.232;2023-03-23T04:58:04;99089.69;;;12.61;67.53
15817;BME280;8009;50.070;8.232;2023-03-23T05:00:34;99101.28;;;12.43;67.46
15817;BME280;8009;50.070;8.232;2023-03-23T05:03:03;99089.72;;;12.51;67.59
15817;BME280;8009;50.070;8.232;2023-03-23T05:05:34;99093.91;;;12.36;68.76
15817;BME280;8009;50.070;8.232;2023-03-23T05:08:03;99100.50;;;12.33;68.87
15817;BME280;8009;50.070;8.232;2023-03-23T05:10:34;99108.28;;;12.46;68.58
15817;BME280;8009;50.070;8.232;2023-03-23T05:13:03;99109.69;;;12.50;68.53
15817;BME280;8009;50.070;8.232;2023-03-23T05:15:31;99099.09;;;12.57;68.06
15817;BME280;8009;50.070;8.232;2023-03-23T05:17:59;99098.00;;;12.50;68.78
15817;BME280;8009;50.070;8.232;2023-03-23T05:20:28;99104.31;;;12.40;69.50
15817;BME280;8009;50.070;8.232;2023-03-23T05:22:56;99098.50;;;12.35;69.57
15817;BME280;8009;50.070;8.232;2023-03-23T05:25:24;99105.31;;;12.39;69.87
15817;BME280;8009;50.070;8.232;2023-03-23T05:27:56;99101.16;;;12.45;69.81
15817;BME280;8009;50.070;8.232;2023-03-23T05:30:26;99098.59;;;12.43;70.09
15817;BME280;8009;50.070;8.232;2023-03-23T05:32:55;99094.25;;;12.33;70.08
15817;BME280;8009;50.070;8.232;2023-03-23T05:35:23;99097.59;;;12.44;70.33
15817;BME280;8009;50.070;8.232;2023-03-23T05:37:52;99101.84;;;12.47;70.01
15817;BME280;8009;50.070;8.232;2023-03-23T05:40:22;99104.72;;;12.46;70.24
15817;BME280;8009;50.070;8.232;2023-03-23T05:42:51;99106.59;;;12.35;71.03
15817;BME280;8009;50.070;8.232;2023-03-23T05:45:24;99117.97;;;12.49;70.31
15817;BME280;8009;50.070;8.232;2023-03-23T05:47:53;99123.00;;;12.34;71.15
15817;BME280;8009;50.070;8.232;2023-03-23T05:50:22;99129.53;;;12.41;70.68
15817;BME280;8009;50.070;8.232;2023-03-23T05:52:50;99128.50;;;12.52;70.90
15817;BME280;8009;50.070;8.232;2023-03-23T05:55:19;99118.34;;;12.26;71.76
15817;BME280;8009;50.070;8.232;2023-03-23T05:57:47;99119.16;;;12.36;71.60
15817;BME280;8009;50.070;8.232;2023-03-23T06:00:16;99111.69;;;12.48;71.30
15817;BME280;8009;50.070;8.232;2023-03-23T06:02:48;99116.03;;;12.31;71.74
15817;BME280;8009;50.070;8.232;2023-03-23T06:05:19;99131.88;;;12.26;72.47
15817;BME280;8009;50.070;8.232;2023-03-23T06:07:47;99127.94;;;12.48;71.56
15817;BME280;8009;50.070;8.232;2023-03-23T06:10:16;99121.91;;;12.54;71.59
15817;BME280;8009;50.070;8.232;2023-03-23T06:12:44;99125.66;;;12.43;71.51
15817;BME280;8009;50.070;8.232;2023-03-23T06:15:13;99124.72;;;12.35;73.06
15817;BME280;8009;50.070;8.232;2023-03-23T06:17:41;99133.97;;;12.32;72.42
15817;BME280;8009;50.070;8.232;2023-03-23T06:20:12;99134.69;;;12.34;72.76
15817;BME280;8009;50.070;8.232;2023-03-23T06:22:41;99136.06;;;12.48;71.89
15817;BME280;8009;50.070;8.232;2023-03-23T06:25:10;99139.91;;;12.46;72.55
15817;BME280;8009;50.070;8.232;2023-03-23T06:27:41;99139.19;;;12.43;72.11
15817;BME280;8009;50.070;8.232;2023-03-23T06:30:11;99151.97;;;12.61;72.04
15817;BME280;8009;50.070;8.232;2023-03-23T06:32:41;99152.72;;;12.53;71.89
15817;BME280;8009;50.070;8.232;2023-03-23T06:35:14;99147.47;;;12.52;72.33
15817;BME280;8009;50.070;8.232;2023-03-23T06:37:43;99159.06;;;12.62;71.62
15817;BME280;8009;50.070;8.232;2023-03-23T06:40:11;99162.50;;;12.64;71.75
15817;BME280;8009;50.070;8.232;2023-03-23T06:42:40;99161.41;;;12.47;72.57
15817;BME280;8009;50.070;8.232;2023-03-23T06:45:09;99161.31;;;12.66;72.07
15817;BME280;8009;50.070;8.232;2023-03-23T06:47:37;99154.13;;;12.57;72.60
15817;BME280;8009;50.070;8.232;2023-03-23T06:50:07;99153.94;;;12.59;72.26
15817;BME280;8009;50.070;8.232;2023-03-23T06:52:38;99149.81;;;12.64;72.40
15817;BME280;8009;50.070;8.232;2023-03-23T06:55:07;99151.69;;;12.54;72.44
15817;BME280;8009;50.070;8.232;2023-03-23T06:57:36;99151.75;;;12.44;73.34
15817;BME280;8009;50.070;8.232;2023-03-23T07:00:07;99149.44;;;12.50;72.52
15817;BME280;8009;50.070;8.232;2023-03-23T07:02:37;99151.22;;;12.68;72.42
15817;BME280;8009;50.070;8.232;2023-03-23T07:05:06;99156.16;;;12.46;73.30
15817;BME280;8009;50.070;8.232;2023-03-23T07:07:38;99157.72;;;12.48;73.07
15817;BME280;8009;50.070;8.232;2023-03-23T07:10:09;99161.31;;;12.66;72.29
15817;BME280;8009;50.070;8.232;2023-03-23T07:12:37;99152.81;;;12.61;72.38
15817;BME280;8009;50.070;8.232;2023-03-23T07:15:08;99158.13;;;12.53;73.01
15817;BME280;8009;50.070;8.232;2023-03-23T07:17:38;99162.50;;;12.64;72.58
15817;BME280;8009;50.070;8.232;2023-03-23T07:20:07;99170.94;;;12.51;72.60
15817;BME280;8009;50.070;8.232;2023-03-23T07:22:38;99176.78;;;12.56;72.81
15817;BME280;8009;50.070;8.232;2023-03-23T07:25:07;99186.41;;;12.68;72.91
15817;BME280;8009;50.070;8.232;2023-03-23T07:27:35;99175.13;;;12.73;73.02
15817;BME280;8009;50.070;8.232;2023-03-23T07:30:05;99166.09;;;12.55;73.73
15817;BME280;8009;50.070;8.232;2023-03-23T07:32:34;99176.91;;;12.55;73.95
15817;BME280;8009;50.070;8.232;2023-03-23T07:35:02;99169.34;;;12.58;74.11
15817;BME280;8009;50.070;8.232;2023-03-23T07:37:31;99175.63;;;12.59;74.32
15817;BME280;8009;50.070;8.232;2023-03-23T07:40:04;99177.56;;;12.39;75.06
15817;BME280;8009;50.070;8.232;2023-03-23T07:42:40;99176.81;;;12.47;74.53
15817;BME280;8009;50.070;8.232;2023-03-23T07:45:10;99186.44;;;12.59;73.75
15817;BME280;8009;50.070;8.232;2023-03-23T07:47:38;99187.56;;;12.66;73.76
15817;BME280;8009;50.070;8.232;2023-03-23T07:50:08;99187.63;;;12.84;73.41
15817;BME280;8009;50.070;8.232;2023-03-23T07:52:38;99187.31;;;12.59;74.68
15817;BME280;8009;50.070;8.232;2023-03-23T07:55:11;99190.72;;;12.61;74.60
15817;BME280;8009;50.070;8.232;2023-03-23T07:57:43;99194.25;;;12.72;74.13
15817;BME280;8009;50.070;8.232;2023-03-23T08:00:13;99199.94;;;12.78;73.76
15817;BME280;8009;50.070;8.232;2023-03-23T08:02:45;99194.56;;;12.59;74.34
15817;BME280;8009;50.070;8.232;2023-03-23T08:05:14;99195.47;;;12.59;75.03
15817;BME280;8009;50.070;8.232;2023-03-23T08:07:43;99190.25;;;12.76;74.37
15817;BME280;8009;50.070;8.232;2023-03-23T08:10:16;99189.63;;;12.82;74.15
15817;BME280;8009;50.070;8.232;2023-03-23T08:12:51;99193.88;;;12.94;73.71
15817;BME280;8009;50.070;8.232;2023-03-23T08:15:21;99193.78;;;12.86;74.01
15817;BME280;8009;50.070;8.232;2023-03-23T08:17:51;99196.31;;;12.87;73.90
15817;BME280;8009;50.070;8.232;2023-03-23T08:20:20;99205.34;;;13.06;73.30
15817;BME280;8009;50.070;8.232;2023-03-23T08:22:52;99213.66;;;13.22;73.14
15817;BME280;8009;50.070;8.232;2023-03-23T08:25:23;99216.44;;;13.40;72.51
15817;BME280;8009;50.070;8.232;2023-03-23T08:27:52;99228.06;;;13.23;72.86
15817;BME280;8009;50.070;8.232;2023-03-23T08:30:21;99229.22;;;13.20;73.10
15817;BME280;8009;50.070;8.232;2023-03-23T08:32:51;99228.06;;;13.23;72.60
15817;BME280;8009;50.070;8.232;2023-03-23T08:35:20;99227.13;;;13.41;71.65
15817;BME280;8009;50.070;8.232;2023-03-23T08:37:49;99223.94;;;13.46;71.01
15817;BME280;8009;50.070;8.232;2023-03-23T08:40:23;99224.56;;;13.58;70.70
15817;BME280;8009;50.070;8.232;2023-03-23T08:42:53;99214.34;;;13.34;70.26
15817;BME280;8009;50.070;8.232;2023-03-23T08:45:23;99214.75;;;13.57;69.99
15817;BME280;8009;50.070;8.232;2023-03-23T08:47:53;99223.50;;;13.69;69.10
15817;BME280;8009;50.070;8.232;2023-03-23T08:50:24;99225.38;;;13.86;68.64
15817;BME280;8009;50.070;8.232;2023-03-23T08:52:53;99218.63;;;13.90;68.68
15817;BME280;8009;50.070;8.232;2023-03-23T08:55:24;99213.25;;;13.80;69.06
15817;BME280;8009;50.070;8.232;2023-03-23T08:57:53;99219.16;;;13.94;68.26
15817;BME280;8009;50.070;8.232;2023-03-23T09:00:23;99216.13;;;13.61;69.21
15817;BME280;8009;50.070;8.232;2023-03-23T09:02:53;99209.63;;;13.72;68.65
15817;BME280;8009;50.070;8.232;2023-03-23T09:05:24;99218.38;;;13.65;68.54
15817;BME280;8009;50.070;8.232;2023-03-23T09:07:55;99215.78;;;13.74;68.51
15817;BME280;8009;50.070;8.232;2023-03-23T09:10:27;99202.28;;;14.08;67.52
15817;BME280;8009;50.070;8.232;2023-03-23T09:12:56;99206.25;;;14.13;67.10
15817;BME280;8009;50.070;8.232;2023-03-23T09:15:25;99210.00;;;14.12;67.25
15817;BME280;8009;50.070;8.232;2023-03-23T09:17:53;99200.09;;;14.29;67.47
15817;BME280;8009;50.070;8.232;2023-03-23T09:20:24;99207.22;;;14.30;66.06
15817;BME280;8009;50.070;8.232;2023-03-23T09:22:54;99212.50;;;14.32;65.53
15817;BME280;8009;50.070;8.232;2023-03-23T09:25:25;99215.41;;;14.12;65.90
15817;BME280;8009;50.070;8.232;2023-03-23T09:27:58;99219.75;;;14.23;66.03
15817;BME280;8009;50.070;8.232;2023-03-23T09:30:28;99210.44;;;14.08;64.91
15817;BME280;8009;50.070;8.232;2023-03-23T09:33:00;99205.19;;;14.32;64.74
15817;BME280;8009;50.070;8.232;2023-03-23T09:35:29;99219.41;;;14.26;64.33
15817;BME280;8009;50.070;8.232;2023-03-23T09:38:00;99217.97;;;13.96;65.12
15817;BME280;8009;50.070;8.232;2023-03-23T09:40:33;99224.97;;;13.99;66.60
15817;BME280;8009;50.070;8.232;2023-03-23T09:46:30;99230.84;;;14.12;65.48
15817;BME280;8009;50.070;8.232;2023-03-23T09:49:04;99230.34;;;13.55;66.78
15817;BME280;8009;50.070;8.232;2023-03-23T09:51:41;99237.28;;;13.57;68.85
15817;BME280;8009;50.070;8.232;2023-03-23T09:54:18;99221.31;;;13.54;67.92
15817;BME280;8009;50.070;8.232;2023-03-23T09:56:48;99220.78;;;13.69;67.46
15817;BME280;8009;50.070;8.232;2023-03-23T09:59:24;99239.72;;;13.78;68.33
15817;BME280;8009;50.070;8.232;2023-03-23T10:01:59;99234.97;;;13.98;66.90
15817;BME280;8009;50.070;8.232;2023-03-23T10:04:34;99237.59;;;13.72;68.45
15817;BME280;8009;50.070;8.232;2023-03-23T10:07:10;99241.94;;;13.65;69.05
15817;BME280;8009;50.070;8.232;2023-03-23T10:09:40;99246.00;;;13.79;67.30
15817;BME280;8009;50.070;8.232;2023-03-23T10:12:21;99240.03;;;13.75;67.24
15817;BME280;8009;50.070;8.232;2023-03-23T10:15:04;99243.13;;;13.98;67.37
15817;BME280;8009;50.070;8.232;2023-03-23T10:17:42;99245.13;;;13.78;68.10
15817;BME280;8009;50.070;8.232;2023-03-23T10:20:24;99242.50;;;13.69;66.50
15817;BME280;8009;50.070;8.232;2023-03-23T10:23:02;99244.31;;;13.50;66.83
15817;BME280;8009;50.070;8.232;2023-03-23T10:25:37;99250.72;;;13.59;66.05
15817;BME280;8009;50.070;8.232;2023-03-23T10:28:11;99256.75;;;13.53;67.18
15817;BME280;8009;50.070;8.232;2023-03-23T10:30:45;99255.59;;;13.91;65.82
15817;BME280;8009;50.070;8.232;2023-03-23T10:33:22;99251.88;;;13.74;65.57
15817;BME280;8009;50.070;8.232;2023-03-23T10:35:55;99247.00;;;13.78;65.79
15817;BME280;8009;50.070;8.232;2023-03-23T10:38:29;99248.44;;;14.08;64.62
15817;BME280;8009;50.070;8.232;2023-03-23T10:41:04;99255.28;;;13.76;64.58
15817;BME280;8009;50.070;8.232;2023-03-23T10:43:33;99259.84;;;13.76;65.36
15817;BME280;8009;50.070;8.232;2023-03-23T10:46:14;99256.59;;;13.72;64.99
15817;BME280;8009;50.070;8.232;2023-03-23T10:48:46;99255.97;;;13.60;65.57
15817;BME280;8009;50.070;8.232;2023-03-23T10:51:19;99248.91;;;13.50;65.50
15817;BME280;8009;50.070;8.232;2023-03-23T10:53:51;99253.75;;;13.74;65.59
15817;BME280;8009;50.070;8.232;2023-03-23T10:56:23;99258.28;;;13.73;65.16
15817;BME280;8009;50.070;8.232;2023-03-23T10:58:53;99261.88;;;13.74;65.59
15817;BME280;8009;50.070;8.232;2023-03-23T11:01:31;99255.44;;;13.93;64.57
15817;BME280;8009;50.070;8.232;2023-03-23T11:04:02;99246.91;;;14.05;64.56
15817;BME280;8009;50.070;8.232;2023-03-23T11:06:33;99260.13;;;14.26;64.61
15817;BME280;8009;50.070;8.232;2023-03-23T11:09:11;99255.53;;;14.01;64.82
15817;BME280;8009;50.070;8.232;2023-03-23T11:11:42;99256.16;;;14.56;64.18
15817;BME280;8009;50.070;8.232;2023-03-23T11:14:16;99264.22;;;14.48;64.66
15817;BME280;8009;50.070;8.232;2023-03-23T11:16:50;99265.38;;;14.46;63.86
15817;BME280;8009;50.070;8.232;2023-03-23T11:19:22;99274.00;;;14.41;63.65
15817;BME280;8009;50.070;8.232;2023-03-23T11:21:55;99273.16;;;14.58;63.96
15817;BME280;8009;50.070;8.232;2023-03-23T11:24:25;99269.25;;;14.61;64.06
15817;BME280;8009;50.070;8.232;2023-03-23T11:26:58;99268.72;;;14.57;62.83
15817;BME280;8009;50.070;8.232;2023-03-23T11:29:29;99269.53;;;14.32;64.23
15817;BME280;8009;50.070;8.232;2023-03-23T11:32:06;99261.31;;;14.24;64.45
15817;BME280;8009;50.070;8.232;2023-03-23T11:34:41;99252.22;;;14.33;63.68
15817;BME280;8009;50.070;8.232;2023-03-23T11:37:13;99266.16;;;14.38;64.21
15817;BME280;8009;50.070;8.232;2023-03-23T11:39:49;99264.47;;;14.37;63.54
15817;BME280;8009;50.070;8.232;2023-03-23T11:42:23;99264.66;;;14.00;64.15
15817;BME280;8009;50.070;8.232;2023-03-23T11:45:13;99268.16;;;14.10;65.12
15817;BME280;8009;50.070;8.232;2023-03-23T11:47:51;99264.03;;;14.24;64.93
15817;BME280;8009;50.070;8.232;2023-03-23T11:50:24;99261.69;;;14.11;65.01
15817;BME280;8009;50.070;8.232;2023-03-23T11:53:00;99267.91;;;14.03;64.42
15817;BME280;8009;50.070;8.232;2023-03-23T11:55:35;99268.84;;;13.76;64.96
15817;BME280;8009;50.070;8.232;2023-03-23T11:58:10;99273.19;;;13.87;64.54
15817;BME280;8009;50.070;8.232;2023-03-23T12:00:43;99267.47;;;13.90;64.92
15817;BME280;8009;50.070;8.232;2023-03-23T12:03:38;99266.94;;;13.86;65.21
15817;BME280;8009;50.070;8.232;2023-03-23T12:06:10;99255.59;;;14.09;65.14
15817;BME280;8009;50.070;8.232;2023-03-23T12:08:56;99253.78;;;14.18;65.12
15817;BME280;8009;50.070;8.232;2023-03-23T12:11:31;99242.41;;;13.96;65.55
15817;BME280;8009;50.070;8.232;2023-03-23T12:14:12;99244.50;;;14.20;64.82
15817;BME280;8009;50.070;8.232;2023-03-23T12:16:56;99244.44;;;14.12;65.05
15817;BME280;8009;50.070;8.232;2023-03-23T12:19:37;99225.91;;;14.33;64.97
15817;BME280;8009;50.070;8.232;2023-03-23T12:22:18;99216.16;;;14.67;64.62
15817;BME280;8009;50.070;8.232;2023-03-23T12:24:57;99213.75;;;14.63;65.23
15817;BME280;8009;50.070;8.232;2023-03-23T12:27:33;99216.78;;;14.95;63.48
15817;BME280;8009;50.070;8.232;2023-03-23T12:30:21;99196.25;;;14.58;64.92
15817;BME280;8009;50.070;8.232;2023-03-23T12:33:02;99192.84;;;14.64;65.87
15817;BME280;8009;50.070;8.232;2023-03-23T12:35:46;99199.09;;;14.56;64.28
15817;BME280;8009;50.070;8.232;2023-03-23T12:38:31;99210.16;;;14.37;65.71
15817;BME280;8009;50.070;8.232;2023-03-23T12:41:11;99216.16;;;14.49;65.91
15817;BME280;8009;50.070;8.232;2023-03-23T12:43:51;99213.19;;;14.34;65.01
15817;BME280;8009;50.070;8.232;2023-03-23T12:46:56;99207.91;;;14.32;65.52
15817;BME280;8009;50.070;8.232;2023-03-23T12:49:31;99207.41;;;14.55;64.94
15817;BME280;8009;50.070;8.232;2023-03-23T12:52:11;99207.94;;;14.58;65.38
15817;BME280;8009;50.070;8.232;2023-03-23T12:54:45;99215.91;;;14.86;65.09
15817;BME280;8009;50.070;8.232;2023-03-23T12:57:34;99230.31;;;14.52;65.53
15817;BME280;8009;50.070;8.232;2023-03-23T13:00:08;99247.63;;;14.77;64.21
15817;BME280;8009;50.070;8.232;2023-03-23T13:02:46;99231.97;;;14.71;64.81
15817;BME280;8009;50.070;8.232;2023-03-23T13:05:29;99218.22;;;14.47;66.60
15817;BME280;8009;50.070;8.232;2023-03-23T13:08:07;99202.84;;;14.55;64.03
15817;BME280;8009;50.070;8.232;2023-03-23T13:10:42;99197.25;;;14.65;65.59
15817;BME280;8009;50.070;8.232;2023-03-23T13:13:17;99187.09;;;15.09;64.42
15817;BME280;8009;50.070;8.232;2023-03-23T13:15:56;99196.06;;;14.94;64.54
15817;BME280;8009;50.070;8.232;2023-03-23T13:18:31;99201.00;;;14.64;65.30
15817;BME280;8009;50.070;8.232;2023-03-23T13:21:13;99201.44;;;14.77;65.00
15817;BME280;8009;50.070;8.232;2023-03-23T13:23:50;99196.56;;;15.48;63.03
15817;BME280;8009;50.070;8.232;2023-03-23T13:26:21;99204.50;;;15.33;63.66
15817;BME280;8009;50.070;8.232;2023-03-23T13:28:57;99200.41;;;15.21;63.09
15817;BME280;8009;50.070;8.232;2023-03-23T13:31:28;99205.81;;;15.13;62.12
15817;BME280;8009;50.070;8.232;2023-03-23T13:34:01;99195.75;;;14.97;62.17
15817;BME280;8009;50.070;8.232;2023-03-23T13:36:35;99192.88;;;14.72;63.12
15817;BME280;8009;50.070;8.232;2023-03-23T13:39:16;99180.50;;;14.70;63.92
15817;BME280;8009;50.070;8.232;2023-03-23T13:41:47;99190.53;;;14.69;63.83
15817;BME280;8009;50.070;8.232;2023-03-23T13:44:23;99190.53;;;14.69;63.54